sensor_id;sensor_type;location;lat;lon;timestamp;P1;durP1;ratioP1;P2;durP2;ratioP2
75362;SDS011;64122;51.988;5.892;2022-10-29T05:28:28;53.97;;;19.42;;
75362;SDS011;64122;51.988;5.892;2022-10-29T05:30:59;35.58;;;15.95;;
75362;SDS011;64122;51.988;5.892;2022-10-29T05:33:28;40.78;;;14.98;;
75362;SDS011;64122;51.988;5.892;2022-10-29T05:35:58;34.55;;;15.02;;
75362;SDS011;64122;51.988;5.892;2022-10-29T05:38:31;29.90;;;14.55;;
75362;SDS011;64122;51.988;5.892;2022-10-29T05:41:00;39.03;;;15.43;;
75362;SDS011;64122;51.988;5.892;2022-10-29T05:43:32;33.80;;;13.75;;
75362;SDS011;64122;51.988;5.892;2022-10-29T05:46:02;31.02;;;13.73;;
75362;SDS011;64122;51.988;5.892;2022-10-29T05:48:31;32.55;;;13.55;;
75362;SDS011;64122;51.988;5.892;2022-10-29T05:51:01;33.58;;;13.60;;
75362;SDS011;64122;51.988;5.892;2022-10-29T05:53:31;33.42;;;14.07;;
75362;SDS011;64122;51.988;5.892;2022-10-29T05:56:01;39.97;;;14.23;;
75362;SDS011;64122;51.988;5.892;2022-10-29T05:58:33;32.50;;;14.50;;
75362;SDS011;64122;51.988;5.892;2022-10-29T06:01:04;31.60;;;13.43;;
75362;SDS011;64122;51.988;5.892;2022-10-29T06:03:34;32.97;;;14.68;;
75362;SDS011;64122;51.988;5.892;2022-10-29T06:06:05;29.58;;;14.68;;
75362;SDS011;64122;51.988;5.892;2022-10-29T06:08:35;24.73;;;12.07;;
75362;SDS011;64122;51.988;5.892;2022-10-29T06:11:04;27.80;;;13.23;;
75362;SDS011;64122;51.988;5.892;2022-10-29T06:13:36;27.40;;;14.63;;
75362;SDS011;64122;51.988;5.892;2022-10-29T06:16:06;32.47;;;13.80;;
75362;SDS011;64122;51.988;5.892;2022-10-29T06:18:36;34.55;;;14.63;;
75362;SDS011;64122;51.988;5.892;2022-10-29T06:21:05;34.13;;;14.68;;
75362;SDS011;64122;51.988;5.892;2022-10-29T06:23:34;30.20;;;14.27;;
75362;SDS011;64122;51.988;5.892;2022-10-29T06:26:04;27.85;;;14.18;;
75362;SDS011;64122;51.988;5.892;2022-10-29T06:28:36;30.90;;;13.65;;
75362;SDS011;64122;51.988;5.892;2022-10-29T06:31:06;29.27;;;14.40;;
75362;SDS011;64122;51.988;5.892;2022-10-29T06:33:35;26.02;;;12.38;;
75362;SDS011;64122;51.988;5.892;2022-10-29T06:36:05;25.95;;;12.95;;
75362;SDS011;64122;51.988;5.892;2022-10-29T06:38:34;24.23;;;12.60;;
75362;SDS011;64122;51.988;5.892;2022-10-29T06:41:04;26.20;;;12.80;;
75362;SDS011;64122;51.988;5.892;2022-10-29T06:43:37;30.77;;;12.63;;
75362;SDS011;64122;51.988;5.892;2022-10-29T06:46:06;27.88;;;13.75;;
75362;SDS011;64122;51.988;5.892;2022-10-29T06:48:35;30.45;;;13.00;;
75362;SDS011;64122;51.988;5.892;2022-10-29T06:51:05;29.17;;;12.07;;
75362;SDS011;64122;51.988;5.892;2022-10-29T06:53:34;25.08;;;12.38;;
75362;SDS011;64122;51.988;5.892;2022-10-29T06:56:03;25.95;;;13.38;;
75362;SDS011;64122;51.988;5.892;2022-10-29T06:58:33;26.05;;;12.85;;
75362;SDS011;64122;51.988;5.892;2022-10-29T07:01:05;25.13;;;13.27;;
75362;SDS011;64122;51.988;5.892;2022-10-29T07:03:34;28.60;;;13.80;;
75362;SDS011;64122;51.988;5.892;2022-10-29T07:06:04;21.63;;;11.90;;
75362;SDS011;64122;51.988;5.892;2022-10-29T07:08:33;27.08;;;12.93;;
75362;SDS011;64122;51.988;5.892;2022-10-29T07:11:03;25.63;;;13.27;;
75362;SDS011;64122;51.988;5.892;2022-10-29T07:13:32;28.27;;;13.40;;
75362;SDS011;64122;51.988;5.892;2022-10-29T07:16:05;31.92;;;12.55;;
75362;SDS011;64122;51.988;5.892;2022-10-29T07:18:35;29.40;;;12.80;;
75362;SDS011;64122;51.988;5.892;2022-10-29T07:21:04;25.42;;;13.00;;
75362;SDS011;64122;51.988;5.892;2022-10-29T07:23:34;30.60;;;14.13;;
75362;SDS011;64122;51.988;5.892;2022-10-29T07:26:04;29.75;;;13.48;;
75362;SDS011;64122;51.988;5.892;2022-10-29T07:28:33;24.02;;;12.63;;
75362;SDS011;64122;51.988;5.892;2022-10-29T07:31:05;23.30;;;11.85;;
75362;SDS011;64122;51.988;5.892;2022-10-29T07:33:35;27.98;;;12.98;;
75362;SDS011;64122;51.988;5.892;2022-10-29T07:36:05;24.80;;;12.75;;
75362;SDS011;64122;51.988;5.892;2022-10-29T07:38:34;22.33;;;12.18;;
75362;SDS011;64122;51.988;5.892;2022-10-29T07:41:04;27.38;;;13.38;;
75362;SDS011;64122;51.988;5.892;2022-10-29T07:43:33;28.92;;;13.35;;
75362;SDS011;64122;51.988;5.892;2022-10-29T07:46:02;23.88;;;13.00;;
75362;SDS011;64122;51.988;5.892;2022-10-29T07:48:35;24.27;;;13.30;;
75362;SDS011;64122;51.988;5.892;2022-10-29T07:51:04;22.50;;;12.13;;
75362;SDS011;64122;51.988;5.892;2022-10-29T07:53:34;27.85;;;13.18;;
75362;SDS011;64122;51.988;5.892;2022-10-29T07:56:03;24.40;;;12.57;;
75362;SDS011;64122;51.988;5.892;2022-10-29T07:58:33;28.90;;;15.35;;
75362;SDS011;64122;51.988;5.892;2022-10-29T08:01:03;28.60;;;13.63;;
75362;SDS011;64122;51.988;5.892;2022-10-29T08:03:35;23.05;;;13.52;;
75362;SDS011;64122;51.988;5.892;2022-10-29T08:06:05;25.45;;;12.52;;
75362;SDS011;64122;51.988;5.892;2022-10-29T08:08:34;24.83;;;12.95;;
75362;SDS011;64122;51.988;5.892;2022-10-29T08:11:04;23.70;;;13.55;;
75362;SDS011;64122;51.988;5.892;2022-10-29T08:13:33;28.25;;;14.50;;
75362;SDS011;64122;51.988;5.892;2022-10-29T08:16:03;22.10;;;11.98;;
75362;SDS011;64122;51.988;5.892;2022-10-29T08:18:35;26.38;;;12.20;;
75362;SDS011;64122;51.988;5.892;2022-10-29T08:21:05;23.27;;;12.60;;
75362;SDS011;64122;51.988;5.892;2022-10-29T08:23:34;26.38;;;13.23;;
75362;SDS011;64122;51.988;5.892;2022-10-29T08:26:04;35.33;;;14.40;;
75362;SDS011;64122;51.988;5.892;2022-10-29T08:28:36;22.98;;;12.90;;
75362;SDS011;64122;51.988;5.892;2022-10-29T08:31:10;21.88;;;12.90;;
75362;SDS011;64122;51.988;5.892;2022-10-29T08:33:39;26.10;;;13.05;;
75362;SDS011;64122;51.988;5.892;2022-10-29T08:36:09;34.40;;;13.75;;
75362;SDS011;64122;51.988;5.892;2022-10-29T08:38:39;22.15;;;11.43;;
75362;SDS011;64122;51.988;5.892;2022-10-29T08:41:13;22.60;;;13.48;;
75362;SDS011;64122;51.988;5.892;2022-10-29T08:43:57;22.50;;;12.55;;
75362;SDS011;64122;51.988;5.892;2022-10-29T08:46:42;20.27;;;11.23;;
75362;SDS011;64122;51.988;5.892;2022-10-29T08:49:16;28.00;;;12.50;;
75362;SDS011;64122;51.988;5.892;2022-10-29T08:51:49;24.70;;;12.30;;
75362;SDS011;64122;51.988;5.892;2022-10-29T08:54:23;23.27;;;11.48;;
75362;SDS011;64122;51.988;5.892;2022-10-29T08:56:56;21.60;;;12.50;;
75362;SDS011;64122;51.988;5.892;2022-10-29T08:59:30;20.30;;;10.95;;
75362;SDS011;64122;51.988;5.892;2022-10-29T09:02:06;25.52;;;11.52;;
75362;SDS011;64122;51.988;5.892;2022-10-29T09:07:18;24.20;;;11.35;;
75362;SDS011;64122;51.988;5.892;2022-10-29T09:10:02;28.70;;;12.60;;
75362;SDS011;64122;51.988;5.892;2022-10-29T09:12:43;20.42;;;11.73;;
75362;SDS011;64122;51.988;5.892;2022-10-29T09:15:26;20.95;;;11.85;;
75362;SDS011;64122;51.988;5.892;2022-10-29T09:18:11;23.73;;;11.20;;
75362;SDS011;64122;51.988;5.892;2022-10-29T09:20:55;23.52;;;11.90;;
75362;SDS011;64122;51.988;5.892;2022-10-29T09:23:36;26.48;;;11.85;;
75362;SDS011;64122;51.988;5.892;2022-10-29T09:26:28;28.92;;;12.27;;
75362;SDS011;64122;51.988;5.892;2022-10-29T09:29:03;21.45;;;12.77;;
75362;SDS011;64122;51.988;5.892;2022-10-29T09:31:46;24.08;;;11.88;;
75362;SDS011;64122;51.988;5.892;2022-10-29T09:34:24;21.60;;;13.15;;
75362;SDS011;64122;51.988;5.892;2022-10-29T09:36:57;21.15;;;11.52;;
75362;SDS011;64122;51.988;5.892;2022-10-29T09:39:28;24.23;;;11.48;;
75362;SDS011;64122;51.988;5.892;2022-10-29T09:42:01;19.33;;;11.63;;
75362;SDS011;64122;51.988;5.892;2022-10-29T09:44:37;23.63;;;12.00;;
75362;SDS011;64122;51.988;5.892;2022-10-29T09:47:15;20.20;;;12.00;;
75362;SDS011;64122;51.988;5.892;2022-10-29T09:49:59;23.00;;;11.50;;
75362;SDS011;64122;51.988;5.892;2022-10-29T09:52:38;23.15;;;11.68;;
75362;SDS011;64122;51.988;5.892;2022-10-29T09:55:14;26.60;;;11.68;;
75362;SDS011;64122;51.988;5.892;2022-10-29T09:57:48;26.73;;;11.48;;
75362;SDS011;64122;51.988;5.892;2022-10-29T10:00:19;20.50;;;12.23;;
75362;SDS011;64122;51.988;5.892;2022-10-29T10:02:52;22.80;;;11.35;;
75362;SDS011;64122;51.988;5.892;2022-10-29T10:05:30;22.30;;;11.10;;
75362;SDS011;64122;51.988;5.892;2022-10-29T10:08:05;22.00;;;11.02;;
75362;SDS011;64122;51.988;5.892;2022-10-29T10:10:38;24.10;;;11.60;;
75362;SDS011;64122;51.988;5.892;2022-10-29T10:13:19;19.48;;;10.55;;
75362;SDS011;64122;51.988;5.892;2022-10-29T10:15:51;20.35;;;11.63;;
75362;SDS011;64122;51.988;5.892;2022-10-29T10:18:22;23.33;;;11.25;;
75362;SDS011;64122;51.988;5.892;2022-10-29T10:21:07;28.50;;;12.65;;
75362;SDS011;64122;51.988;5.892;2022-10-29T10:23:42;20.45;;;10.68;;
75362;SDS011;64122;51.988;5.892;2022-10-29T10:26:26;19.10;;;11.02;;
75362;SDS011;64122;51.988;5.892;2022-10-29T10:31:49;21.95;;;10.75;;
75362;SDS011;64122;51.988;5.892;2022-10-29T10:34:35;21.17;;;12.25;;
75362;SDS011;64122;51.988;5.892;2022-10-29T10:37:13;19.27;;;10.38;;
75362;SDS011;64122;51.988;5.892;2022-10-29T10:39:47;22.55;;;11.40;;
75362;SDS011;64122;51.988;5.892;2022-10-29T10:42:21;22.23;;;10.60;;
75362;SDS011;64122;51.988;5.892;2022-10-29T10:44:55;22.95;;;11.40;;
75362;SDS011;64122;51.988;5.892;2022-10-29T10:47:27;20.83;;;10.70;;
75362;SDS011;64122;51.988;5.892;2022-10-29T10:52:40;19.88;;;10.40;;
75362;SDS011;64122;51.988;5.892;2022-10-29T10:57:55;20.60;;;9.48;;
75362;SDS011;64122;51.988;5.892;2022-10-29T11:00:33;21.02;;;10.10;;
75362;SDS011;64122;51.988;5.892;2022-10-29T11:03:09;21.73;;;9.70;;
75362;SDS011;64122;51.988;5.892;2022-10-29T11:05:45;23.58;;;9.93;;
75362;SDS011;64122;51.988;5.892;2022-10-29T11:08:23;19.48;;;8.63;;
75362;SDS011;64122;51.988;5.892;2022-10-29T11:10:57;21.02;;;9.70;;
75362;SDS011;64122;51.988;5.892;2022-10-29T11:13:30;20.70;;;9.55;;
75362;SDS011;64122;51.988;5.892;2022-10-29T11:18:35;18.10;;;8.35;;
75362;SDS011;64122;51.988;5.892;2022-10-29T11:21:10;19.77;;;8.98;;
75362;SDS011;64122;51.988;5.892;2022-10-29T11:23:47;24.98;;;9.15;;
75362;SDS011;64122;51.988;5.892;2022-10-29T11:26:24;15.57;;;8.73;;
75362;SDS011;64122;51.988;5.892;2022-10-29T11:28:59;18.15;;;8.20;;
75362;SDS011;64122;51.988;5.892;2022-10-29T11:31:35;18.88;;;10.25;;
75362;SDS011;64122;51.988;5.892;2022-10-29T11:34:09;19.08;;;8.70;;
75362;SDS011;64122;51.988;5.892;2022-10-29T11:36:45;18.48;;;8.60;;
75362;SDS011;64122;51.988;5.892;2022-10-29T11:39:21;16.58;;;8.73;;
75362;SDS011;64122;51.988;5.892;2022-10-29T11:41:56;21.20;;;9.63;;
75362;SDS011;64122;51.988;5.892;2022-10-29T11:44:27;20.08;;;9.02;;
75362;SDS011;64122;51.988;5.892;2022-10-29T11:47:08;22.27;;;8.40;;
75362;SDS011;64122;51.988;5.892;2022-10-29T11:49:52;17.17;;;8.73;;
75362;SDS011;64122;51.988;5.892;2022-10-29T11:52:33;17.13;;;7.80;;
75362;SDS011;64122;51.988;5.892;2022-10-29T11:55:22;17.27;;;8.40;;
75362;SDS011;64122;51.988;5.892;2022-10-29T11:57:59;19.52;;;8.05;;
75362;SDS011;64122;51.988;5.892;2022-10-29T12:00:40;15.98;;;7.97;;
75362;SDS011;64122;51.988;5.892;2022-10-29T12:03:22;14.85;;;7.18;;
75362;SDS011;64122;51.988;5.892;2022-10-29T12:06:07;14.57;;;7.10;;
75362;SDS011;64122;51.988;5.892;2022-10-29T12:08:45;18.40;;;7.25;;
75362;SDS011;64122;51.988;5.892;2022-10-29T12:11:24;13.27;;;6.22;;
75362;SDS011;64122;51.988;5.892;2022-10-29T12:14:03;18.48;;;7.43;;
75362;SDS011;64122;51.988;5.892;2022-10-29T12:16:43;19.45;;;6.78;;
75362;SDS011;64122;51.988;5.892;2022-10-29T12:19:23;14.27;;;6.75;;
75362;SDS011;64122;51.988;5.892;2022-10-29T12:22:06;14.77;;;6.75;;
75362;SDS011;64122;51.988;5.892;2022-10-29T12:24:49;15.15;;;6.80;;
75362;SDS011;64122;51.988;5.892;2022-10-29T12:27:30;19.33;;;7.47;;
75362;SDS011;64122;51.988;5.892;2022-10-29T12:30:08;16.25;;;7.47;;
75362;SDS011;64122;51.988;5.892;2022-10-29T12:32:42;20.25;;;7.80;;
75362;SDS011;64122;51.988;5.892;2022-10-29T12:35:21;17.52;;;7.15;;
75362;SDS011;64122;51.988;5.892;2022-10-29T12:38:04;16.48;;;6.88;;
75362;SDS011;64122;51.988;5.892;2022-10-29T12:40:47;12.18;;;5.95;;
75362;SDS011;64122;51.988;5.892;2022-10-29T12:43:24;16.73;;;6.75;;
75362;SDS011;64122;51.988;5.892;2022-10-29T12:45:58;14.90;;;5.95;;
75362;SDS011;64122;51.988;5.892;2022-10-29T12:48:36;13.27;;;6.28;;
75362;SDS011;64122;51.988;5.892;2022-10-29T12:51:14;15.80;;;6.15;;
75362;SDS011;64122;51.988;5.892;2022-10-29T12:53:54;14.85;;;6.50;;
75362;SDS011;64122;51.988;5.892;2022-10-29T12:56:38;13.98;;;5.50;;
75362;SDS011;64122;51.988;5.892;2022-10-29T12:59:30;13.18;;;5.47;;
75362;SDS011;64122;51.988;5.892;2022-10-29T13:10:56;14.70;;;5.32;;
75362;SDS011;64122;51.988;5.892;2022-10-29T13:13:40;11.27;;;4.70;;
75362;SDS011;64122;51.988;5.892;2022-10-29T13:16:28;13.70;;;5.15;;
75362;SDS011;64122;51.988;5.892;2022-10-29T13:19:04;18.70;;;5.38;;
75362;SDS011;64122;51.988;5.892;2022-10-29T13:21:58;16.00;;;5.85;;
75362;SDS011;64122;51.988;5.892;2022-10-29T13:24:29;13.73;;;4.93;;
75362;SDS011;64122;51.988;5.892;2022-10-29T13:27:00;16.20;;;5.60;;
75362;SDS011;64122;51.988;5.892;2022-10-29T13:29:41;15.65;;;5.00;;
75362;SDS011;64122;51.988;5.892;2022-10-29T13:35:01;15.60;;;6.05;;
75362;SDS011;64122;51.988;5.892;2022-10-29T13:43:42;11.68;;;4.93;;
75362;SDS011;64122;51.988;5.892;2022-10-29T13:46:32;16.65;;;5.70;;
75362;SDS011;64122;51.988;5.892;2022-10-29T13:49:14;12.82;;;4.97;;
75362;SDS011;64122;51.988;5.892;2022-10-29T13:51:54;12.93;;;6.43;;
75362;SDS011;64122;51.988;5.892;2022-10-29T13:54:29;15.98;;;5.35;;
75362;SDS011;64122;51.988;5.892;2022-10-29T13:57:06;11.77;;;5.20;;
75362;SDS011;64122;51.988;5.892;2022-10-29T13:59:45;12.27;;;5.50;;
75362;SDS011;64122;51.988;5.892;2022-10-29T14:02:22;15.55;;;5.68;;
75362;SDS011;64122;51.988;5.892;2022-10-29T14:05:02;12.50;;;5.07;;
75362;SDS011;64122;51.988;5.892;2022-10-29T14:07:49;14.35;;;5.10;;
75362;SDS011;64122;51.988;5.892;2022-10-29T14:10:22;17.98;;;5.50;;
75362;SDS011;64122;51.988;5.892;2022-10-29T14:12:55;18.67;;;5.95;;
75362;SDS011;64122;51.988;5.892;2022-10-29T14:15:28;15.65;;;5.10;;
75362;SDS011;64122;51.988;5.892;2022-10-29T14:20:55;18.23;;;5.10;;
75362;SDS011;64122;51.988;5.892;2022-10-29T14:23:26;12.63;;;5.43;;
75362;SDS011;64122;51.988;5.892;2022-10-29T14:25:57;16.00;;;5.88;;
75362;SDS011;64122;51.988;5.892;2022-10-29T14:28:28;12.60;;;5.55;;
75362;SDS011;64122;51.988;5.892;2022-10-29T14:30:59;16.38;;;5.32;;
75362;SDS011;64122;51.988;5.892;2022-10-29T14:33:31;20.42;;;5.95;;
75362;SDS011;64122;51.988;5.892;2022-10-29T14:36:11;13.15;;;5.10;;
75362;SDS011;64122;51.988;5.892;2022-10-29T14:38:48;14.57;;;5.90;;
75362;SDS011;64122;51.988;5.892;2022-10-29T14:41:22;20.25;;;6.55;;
75362;SDS011;64122;51.988;5.892;2022-10-29T14:43:57;18.05;;;6.03;;
75362;SDS011;64122;51.988;5.892;2022-10-29T14:46:31;18.23;;;6.13;;
75362;SDS011;64122;51.988;5.892;2022-10-29T14:49:04;15.27;;;6.13;;
75362;SDS011;64122;51.988;5.892;2022-10-29T14:51:46;16.75;;;5.70;;
75362;SDS011;64122;51.988;5.892;2022-10-29T14:54:19;14.30;;;5.47;;
75362;SDS011;64122;51.988;5.892;2022-10-29T14:56:52;14.82;;;5.78;;
75362;SDS011;64122;51.988;5.892;2022-10-29T14:59:24;13.43;;;5.78;;
75362;SDS011;64122;51.988;5.892;2022-10-29T15:01:57;12.88;;;4.85;;
75362;SDS011;64122;51.988;5.892;2022-10-29T15:04:29;16.30;;;5.78;;
75362;SDS011;64122;51.988;5.892;2022-10-29T15:10:01;14.48;;;5.20;;
75362;SDS011;64122;51.988;5.892;2022-10-29T15:12:44;15.35;;;6.05;;
75362;SDS011;64122;51.988;5.892;2022-10-29T15:15:21;16.00;;;6.25;;
75362;SDS011;64122;51.988;5.892;2022-10-29T15:17:59;15.18;;;5.35;;
75362;SDS011;64122;51.988;5.892;2022-10-29T15:20:33;15.00;;;6.10;;
75362;SDS011;64122;51.988;5.892;2022-10-29T15:23:10;20.48;;;7.15;;
75362;SDS011;64122;51.988;5.892;2022-10-29T15:25:47;18.13;;;7.13;;
75362;SDS011;64122;51.988;5.892;2022-10-29T15:28:20;13.38;;;6.07;;
75362;SDS011;64122;51.988;5.892;2022-10-29T15:30:52;12.40;;;5.95;;
75362;SDS011;64122;51.988;5.892;2022-10-29T15:33:24;16.35;;;6.40;;
75362;SDS011;64122;51.988;5.892;2022-10-29T15:35:55;15.63;;;6.68;;
75362;SDS011;64122;51.988;5.892;2022-10-29T15:38:48;18.20;;;7.60;;
75362;SDS011;64122;51.988;5.892;2022-10-29T15:41:44;17.45;;;6.53;;
75362;SDS011;64122;51.988;5.892;2022-10-29T15:47:17;17.38;;;6.75;;
75362;SDS011;64122;51.988;5.892;2022-10-29T15:49:49;17.55;;;7.35;;
75362;SDS011;64122;51.988;5.892;2022-10-29T15:52:18;14.25;;;6.20;;
75362;SDS011;64122;51.988;5.892;2022-10-29T15:54:52;17.42;;;7.07;;
75362;SDS011;64122;51.988;5.892;2022-10-29T15:57:21;15.10;;;6.70;;
75362;SDS011;64122;51.988;5.892;2022-10-29T15:59:51;17.52;;;7.57;;
75362;SDS011;64122;51.988;5.892;2022-10-29T16:02:22;19.52;;;7.45;;
75362;SDS011;64122;51.988;5.892;2022-10-29T16:04:52;19.88;;;7.63;;
75362;SDS011;64122;51.988;5.892;2022-10-29T16:07:22;19.85;;;7.30;;
75362;SDS011;64122;51.988;5.892;2022-10-29T16:09:54;19.35;;;8.32;;
75362;SDS011;64122;51.988;5.892;2022-10-29T16:12:26;20.42;;;7.10;;
75362;SDS011;64122;51.988;5.892;2022-10-29T16:14:55;18.10;;;7.97;;
75362;SDS011;64122;51.988;5.892;2022-10-29T16:17:26;14.88;;;7.93;;
75362;SDS011;64122;51.988;5.892;2022-10-29T16:19:56;23.00;;;8.48;;
75362;SDS011;64122;51.988;5.892;2022-10-29T16:22:25;19.50;;;8.23;;
75362;SDS011;64122;51.988;5.892;2022-10-29T16:24:58;17.80;;;8.20;;
75362;SDS011;64122;51.988;5.892;2022-10-29T16:27:28;17.73;;;7.70;;
75362;SDS011;64122;51.988;5.892;2022-10-29T16:29:57;19.55;;;8.05;;
75362;SDS011;64122;51.988;5.892;2022-10-29T16:32:26;20.77;;;8.32;;
75362;SDS011;64122;51.988;5.892;2022-10-29T16:34:56;24.73;;;8.55;;
75362;SDS011;64122;51.988;5.892;2022-10-29T16:37:26;19.55;;;8.02;;
75362;SDS011;64122;51.988;5.892;2022-10-29T16:39:55;20.80;;;8.60;;
75362;SDS011;64122;51.988;5.892;2022-10-29T16:42:28;18.90;;;8.02;;
75362;SDS011;64122;51.988;5.892;2022-10-29T16:45:00;22.23;;;8.38;;
75362;SDS011;64122;51.988;5.892;2022-10-29T16:47:29;18.52;;;8.00;;
75362;SDS011;64122;51.988;5.892;2022-10-29T16:49:59;20.95;;;7.95;;
75362;SDS011;64122;51.988;5.892;2022-10-29T16:52:28;16.83;;;7.20;;
75362;SDS011;64122;51.988;5.892;2022-10-29T16:55:00;19.83;;;8.93;;
75362;SDS011;64122;51.988;5.892;2022-10-29T16:57:29;24.88;;;8.55;;
75362;SDS011;64122;51.988;5.892;2022-10-29T16:59:59;18.50;;;8.02;;
75362;SDS011;64122;51.988;5.892;2022-10-29T17:02:28;21.35;;;8.20;;
75362;SDS011;64122;51.988;5.892;2022-10-29T17:04:58;22.02;;;8.32;;
75362;SDS011;64122;51.988;5.892;2022-10-29T17:07:27;17.92;;;8.48;;
75362;SDS011;64122;51.988;5.892;2022-10-29T17:10:00;17.55;;;8.40;;
75362;SDS011;64122;51.988;5.892;2022-10-29T17:12:29;22.65;;;8.35;;
75362;SDS011;64122;51.988;5.892;2022-10-29T17:14:58;18.23;;;8.35;;
75362;SDS011;64122;51.988;5.892;2022-10-29T17:17:28;20.83;;;8.27;;
75362;SDS011;64122;51.988;5.892;2022-10-29T17:19:57;18.60;;;7.72;;
75362;SDS011;64122;51.988;5.892;2022-10-29T17:22:27;19.73;;;7.97;;
75362;SDS011;64122;51.988;5.892;2022-10-29T17:24:56;17.40;;;7.38;;
75362;SDS011;64122;51.988;5.892;2022-10-29T17:27:28;17.40;;;7.95;;
75362;SDS011;64122;51.988;5.892;2022-10-29T17:29:57;18.13;;;7.88;;
75362;SDS011;64122;51.988;5.892;2022-10-29T17:32:27;20.10;;;6.88;;
75362;SDS011;64122;51.988;5.892;2022-10-29T17:34:57;16.05;;;7.00;;
75362;SDS011;64122;51.988;5.892;2022-10-29T17:37:26;18.08;;;8.30;;
75362;SDS011;64122;51.988;5.892;2022-10-29T17:39:56;19.90;;;9.25;;
75362;SDS011;64122;51.988;5.892;2022-10-29T17:42:28;16.13;;;7.80;;
75362;SDS011;64122;51.988;5.892;2022-10-29T17:44:57;22.58;;;8.88;;
75362;SDS011;64122;51.988;5.892;2022-10-29T17:47:27;19.92;;;9.18;;
75362;SDS011;64122;51.988;5.892;2022-10-29T17:49:57;20.80;;;9.20;;
75362;SDS011;64122;51.988;5.892;2022-10-29T17:52:26;23.27;;;9.35;;
75362;SDS011;64122;51.988;5.892;2022-10-29T17:54:56;21.00;;;7.60;;
75362;SDS011;64122;51.988;5.892;2022-10-29T17:57:28;23.00;;;8.18;;
75362;SDS011;64122;51.988;5.892;2022-10-29T18:02:26;17.13;;;7.97;;
75362;SDS011;64122;51.988;5.892;2022-10-29T18:04:56;19.65;;;7.75;;
75362;SDS011;64122;51.988;5.892;2022-10-29T18:07:25;17.83;;;7.88;;
75362;SDS011;64122;51.988;5.892;2022-10-29T18:09:54;18.77;;;8.20;;
75362;SDS011;64122;51.988;5.892;2022-10-29T18:12:24;18.35;;;8.38;;
75362;SDS011;64122;51.988;5.892;2022-10-29T18:14:56;17.77;;;8.38;;
75362;SDS011;64122;51.988;5.892;2022-10-29T18:17:25;22.35;;;8.07;;
75362;SDS011;64122;51.988;5.892;2022-10-29T18:19:54;14.60;;;7.75;;
75362;SDS011;64122;51.988;5.892;2022-10-29T18:22:24;18.05;;;8.38;;
75362;SDS011;64122;51.988;5.892;2022-10-29T18:24:53;18.77;;;7.57;;
75362;SDS011;64122;51.988;5.892;2022-10-29T18:27:23;17.25;;;7.43;;
75362;SDS011;64122;51.988;5.892;2022-10-29T18:29:52;21.60;;;9.20;;
75362;SDS011;64122;51.988;5.892;2022-10-29T18:32:24;25.33;;;9.43;;
75362;SDS011;64122;51.988;5.892;2022-10-29T18:34:54;23.35;;;8.20;;
75362;SDS011;64122;51.988;5.892;2022-10-29T18:37:23;17.55;;;8.07;;
75362;SDS011;64122;51.988;5.892;2022-10-29T18:39:52;17.52;;;7.97;;
75362;SDS011;64122;51.988;5.892;2022-10-29T18:42:23;21.00;;;10.05;;
75362;SDS011;64122;51.988;5.892;2022-10-29T18:44:54;16.42;;;8.30;;
75362;SDS011;64122;51.988;5.892;2022-10-29T18:47:26;25.80;;;10.00;;
75362;SDS011;64122;51.988;5.892;2022-10-29T18:49:55;19.85;;;8.68;;
75362;SDS011;64122;51.988;5.892;2022-10-29T18:52:25;13.57;;;7.30;;
75362;SDS011;64122;51.988;5.892;2022-10-29T18:54:56;23.30;;;6.70;;
75362;SDS011;64122;51.988;5.892;2022-10-29T18:57:26;18.33;;;8.23;;
75362;SDS011;64122;51.988;5.892;2022-10-29T18:59:55;22.35;;;8.27;;
75362;SDS011;64122;51.988;5.892;2022-10-29T19:02:27;19.10;;;7.25;;
75362;SDS011;64122;51.988;5.892;2022-10-29T19:04:57;18.10;;;7.10;;
75362;SDS011;64122;51.988;5.892;2022-10-29T19:07:26;19.35;;;7.65;;
75362;SDS011;64122;51.988;5.892;2022-10-29T19:09:55;13.27;;;6.20;;
75362;SDS011;64122;51.988;5.892;2022-10-29T19:12:25;16.40;;;7.40;;
75362;SDS011;64122;51.988;5.892;2022-10-29T19:14:54;19.48;;;8.23;;
75362;SDS011;64122;51.988;5.892;2022-10-29T19:17:23;18.20;;;7.22;;
75362;SDS011;64122;51.988;5.892;2022-10-29T19:19:55;16.05;;;7.05;;
75362;SDS011;64122;51.988;5.892;2022-10-29T19:22:25;17.45;;;8.00;;
75362;SDS011;64122;51.988;5.892;2022-10-29T19:24:54;22.58;;;9.80;;
75362;SDS011;64122;51.988;5.892;2022-10-29T19:27:23;19.05;;;9.55;;
75362;SDS011;64122;51.988;5.892;2022-10-29T19:29:53;19.20;;;8.15;;
75362;SDS011;64122;51.988;5.892;2022-10-29T19:32:22;19.38;;;8.77;;
75362;SDS011;64122;51.988;5.892;2022-10-29T19:34:54;18.77;;;7.60;;
75362;SDS011;64122;51.988;5.892;2022-10-29T19:37:24;18.58;;;6.80;;
75362;SDS011;64122;51.988;5.892;2022-10-29T19:39:53;21.55;;;7.47;;
75362;SDS011;64122;51.988;5.892;2022-10-29T19:42:22;16.42;;;6.45;;
75362;SDS011;64122;51.988;5.892;2022-10-29T19:44:52;12.10;;;6.25;;
75362;SDS011;64122;51.988;5.892;2022-10-29T19:47:21;16.83;;;7.13;;
75362;SDS011;64122;51.988;5.892;2022-10-29T19:49:50;14.95;;;7.13;;
75362;SDS011;64122;51.988;5.892;2022-10-29T19:52:22;15.45;;;6.82;;
75362;SDS011;64122;51.988;5.892;2022-10-29T19:54:52;15.82;;;5.90;;
75362;SDS011;64122;51.988;5.892;2022-10-29T19:57:21;15.30;;;6.53;;
75362;SDS011;64122;51.988;5.892;2022-10-29T19:59:51;17.00;;;6.07;;
75362;SDS011;64122;51.988;5.892;2022-10-29T20:02:20;20.38;;;6.47;;
75362;SDS011;64122;51.988;5.892;2022-10-29T20:04:50;15.38;;;5.82;;
75362;SDS011;64122;51.988;5.892;2022-10-29T20:07:19;12.88;;;6.00;;
75362;SDS011;64122;51.988;5.892;2022-10-29T20:09:51;19.23;;;6.93;;
75362;SDS011;64122;51.988;5.892;2022-10-29T20:12:21;15.13;;;6.05;;
75362;SDS011;64122;51.988;5.892;2022-10-29T20:14:51;12.98;;;6.22;;
75362;SDS011;64122;51.988;5.892;2022-10-29T20:17:20;15.85;;;6.78;;
75362;SDS011;64122;51.988;5.892;2022-10-29T20:19:50;12.85;;;6.50;;
75362;SDS011;64122;51.988;5.892;2022-10-29T20:22:19;15.57;;;5.68;;
75362;SDS011;64122;51.988;5.892;2022-10-29T20:24:51;17.73;;;7.95;;
75362;SDS011;64122;51.988;5.892;2022-10-29T20:27:21;10.07;;;5.70;;
75362;SDS011;64122;51.988;5.892;2022-10-29T20:29:52;12.93;;;6.18;;
75362;SDS011;64122;51.988;5.892;2022-10-29T20:32:21;13.85;;;5.90;;
75362;SDS011;64122;51.988;5.892;2022-10-29T20:34:51;18.38;;;6.70;;
75362;SDS011;64122;51.988;5.892;2022-10-29T20:37:20;16.10;;;6.43;;
75362;SDS011;64122;51.988;5.892;2022-10-29T20:39:52;15.65;;;6.88;;
75362;SDS011;64122;51.988;5.892;2022-10-29T20:42:21;14.52;;;6.75;;
75362;SDS011;64122;51.988;5.892;2022-10-29T20:44:51;16.88;;;8.07;;
75362;SDS011;64122;51.988;5.892;2022-10-29T20:47:21;19.88;;;8.77;;
75362;SDS011;64122;51.988;5.892;2022-10-29T20:49:50;17.38;;;7.78;;
75362;SDS011;64122;51.988;5.892;2022-10-29T20:52:20;17.70;;;8.60;;
75362;SDS011;64122;51.988;5.892;2022-10-29T20:54:52;14.57;;;7.50;;
75362;SDS011;64122;51.988;5.892;2022-10-29T20:57:21;16.65;;;7.78;;
75362;SDS011;64122;51.988;5.892;2022-10-29T20:59:51;19.35;;;8.38;;
75362;SDS011;64122;51.988;5.892;2022-10-29T21:02:20;16.75;;;7.97;;
75362;SDS011;64122;51.988;5.892;2022-10-29T21:04:50;21.65;;;7.35;;
75362;SDS011;64122;51.988;5.892;2022-10-29T21:07:19;17.13;;;7.80;;
75362;SDS011;64122;51.988;5.892;2022-10-29T21:09:48;19.60;;;7.88;;
75362;SDS011;64122;51.988;5.892;2022-10-29T21:12:20;18.30;;;7.78;;
75362;SDS011;64122;51.988;5.892;2022-10-29T21:14:50;15.52;;;7.70;;